Latest Weather Observations for Redcliffe

IDQ60901

Issued at 9:01 pm EST Monday 10 December 2018 (issued every 10 minutes, with the page automatically refreshed every 10 minutes)

About weather observations | Map of Brisbane area stations | Latest observations for Brisbane area | Other Formats
Station Details ID: 040958 Name: REDCLIFFE Lat: -27.22 Lon: 153.09 Height: 12.6 m
Data from the previous 72 hours. | See also: Recent months at Redcliffe
Date/Time
EST
Temp
°C
App
Temp
°C
Dew
Point
°C
Rel
Hum
%
Delta-T
°C
Wind Press
QNH
hPa
Press
MSL
hPa
Rain since
9am
mm
Dir  Spd
km/h
Gust
km/h
Spd
kts
Gust
kts
10/09:00pm 23.6 23.5 17.8 70 3.6 NE 15 17 8 9 1016.6 1016.5 0.0
10/08:30pm 23.7 23.5 17.7 69 3.7 ENE 15 19 8 10 1016.2 1016.1 0.0
10/08:00pm 23.8 22.8 17.5 68 3.9 NE 19 22 10 12 1015.9 1015.8 0.0
10/07:30pm 23.9 22.7 17.6 68 3.9 NNE 20 24 11 13 1015.7 1015.6 0.0
10/07:00pm 23.9 23.1 17.9 69 3.8 NE 19 19 10 10 1015.6 1015.5 0.0
10/06:30pm 24.1 22.9 17.4 66 4.2 NE 20 22 11 12 1015.2 1015.1 0.0
10/06:00pm 24.6 22.8 17.8 66 4.3 NE 24 26 13 14 1014.7 1014.6 0.0
10/05:30pm 24.9 22.6 17.6 64 4.6 NE 26 30 14 16 1014.2 1014.1 0.0
10/05:00pm 25.3 22.0 17.0 60 5.1 NNE 30 33 16 18 1013.8 1013.7 0.0
10/04:30pm 25.5 22.5 16.9 59 5.3 NNE 28 32 15 17 1013.8 1013.7 0.0
10/04:00pm 25.4 22.8 16.8 59 5.3 NE 26 30 14 16 1014.0 1013.9 0.0
10/03:30pm 26.6 24.0 16.8 55 6.1 NE 26 30 14 16 1014.1 1014.0 0.0
10/03:00pm 26.8 24.5 15.8 51 6.7 NE 22 26 12 14 1014.2 1014.1 0.0
10/02:30pm 26.6 23.9 14.7 48 7.1 NE 22 26 12 14 1014.6 1014.5 0.0
10/02:00pm 27.1 24.8 14.1 44 7.7 NE 19 22 10 12 1014.9 1014.8 0.0
10/01:30pm 27.4 25.5 14.1 44 7.9 NE 17 20 9 11 1015.0 1014.9 0.0
10/01:00pm 27.7 26.6 16.3 49 7.0 NE 17 20 9 11 1015.1 1015.0 0.0
10/12:30pm 27.8 26.6 17.0 51 6.8 NE 19 20 10 11 1015.3 1015.2 0.0
10/12:00pm 27.5 27.1 17.1 53 6.5 NE 15 19 8 10 1015.6 1015.5 0.0
10/11:30am 27.2 26.5 17.4 55 6.2 NE 17 20 9 11 1015.7 1015.6 0.0
10/11:00am 27.0 27.4 17.2 55 6.1 ENE 11 15 6 8 1015.6 1015.5 0.0
10/10:30am 26.9 27.7 18.2 59 5.5 E 11 13 6 7 1015.9 1015.8 0.0
10/10:00am 26.5 27.2 18.9 63 4.9 E 13 13 7 7 1016.1 1016.0 0.0
10/09:30am 26.3 26.5 17.6 58 5.5 ESE 13 15 7 8 1016.1 1016.0 0.0
10/09:00am 26.0 26.8 18.2 62 4.9 ESE 11 13 6 7 1016.3 1016.2 0.2
10/08:30am 25.9 26.2 17.8 61 5.1 E 13 15 7 8 1016.4 1016.3 0.2
10/08:00am 25.2 25.9 17.9 64 4.6 E 11 13 6 7 1016.5 1016.4 0.2
10/07:30am 25.1 25.3 18.5 67 4.2 E 15 17 8 9 1016.4 1016.3 0.2
10/07:00am 24.7 24.7 18.9 70 3.7 E 17 20 9 11 1016.1 1016.0 0.2
10/06:30am 24.2 23.6 18.8 72 3.4 E 20 26 11 14 1015.9 1015.8 0.2
10/06:00am 23.4 22.8 18.9 76 2.9 E 20 26 11 14 1015.6 1015.5 0.2
10/05:30am 23.1 23.6 19.3 79 2.4 ESE 15 17 8 9 1015.3 1015.2 0.2
10/05:00am 22.8 23.3 18.3 76 2.8 E 13 15 7 8 1015.2 1015.1 0.2
10/04:30am 22.6 22.3 18.2 76 2.8 E 17 20 9 11 1014.9 1014.8 0.2
10/04:00am 22.5 22.1 18.1 76 2.7 ENE 17 22 9 12 1014.7 1014.6 0.2
10/03:30am 22.6 22.4 17.5 73 3.2 ENE 15 19 8 10 1014.7 1014.6 0.2
10/03:00am 22.7 21.0 17.2 71 3.4 E 22 26 12 14 1015.1 1015.0 0.2
10/02:30am 22.6 21.6 17.5 73 3.2 E 19 22 10 12 1015.3 1015.2 0.2
10/02:00am 23.1 22.3 18.4 75 3.0 E 20 26 11 14 1015.5 1015.4 0.2
10/01:30am 23.1 22.3 18.4 75 3.0 E 20 24 11 13 1015.9 1015.8 0.2
10/01:00am 23.2 22.2 17.9 72 3.3 E 20 24 11 13 1016.2 1016.1 0.2
10/12:30am 23.1 21.9 17.6 71 3.4 E 20 24 11 13 1016.6 1016.5 0.2
10/12:00am 23.0 22.0 17.9 73 3.2 E 20 24 11 13 1017.0 1016.9 0.2
 
Date/Time
EST
Temp
°C
App
Temp
°C
Dew
Point
°C
Rel
Hum
%
Delta-T
°C
Wind Press
QNH
hPa
Press
MSL
hPa
Rain since
9am
mm
Dir  Spd
km/h
Gust
km/h
Spd
kts
Gust
kts
09/11:30pm 23.1 21.3 17.8 72 3.3 E 24 28 13 15 1017.1 1017.0 0.2
09/11:00pm 23.1 21.7 18.0 73 3.2 E 22 28 12 15 1017.3 1017.2 0.2
09/10:30pm 23.0 21.1 18.5 76 2.8 E 26 32 14 17 1017.3 1017.2 0.2
09/10:00pm 23.0 20.3 18.5 76 2.8 E 30 33 16 18 1017.4 1017.3 0.2
09/09:30pm 23.3 20.9 18.2 73 3.2 E 28 33 15 18 1017.4 1017.3 0.2
09/09:00pm 23.3 20.9 18.2 73 3.2 E 28 32 15 17 1017.2 1017.1 0.2
09/08:30pm 23.4 20.9 18.1 72 3.3 ESE 28 33 15 18 1017.4 1017.3 0.2
09/08:00pm 23.3 20.5 18.2 73 3.2 ESE 30 35 16 19 1017.2 1017.1 0.2
09/07:30pm 23.3 20.4 18.0 72 3.3 ESE 30 33 16 18 1017.1 1017.0 0.2
09/07:00pm 23.5 20.4 17.5 69 3.7 ESE 30 33 16 18 1017.0 1016.9 0.2
09/06:30pm 23.6 20.5 16.6 65 4.3 ESE 28 32 15 17 1016.8 1016.7 0.2
09/06:00pm 24.0 21.3 17.5 67 4.0 ESE 28 32 15 17 1017.0 1016.9 0.2
09/05:30pm 24.4 21.7 17.6 66 4.2 ESE 28 32 15 17 1016.7 1016.6 0.2
09/05:00pm 24.3 22.2 17.1 64 4.4 ESE 24 30 13 16 1016.6 1016.5 0.2
09/04:30pm 24.5 22.2 16.7 61 4.8 ESE 24 28 13 15 1016.3 1016.2 0.2
09/04:00pm 24.9 21.9 16.9 61 4.9 ESE 28 32 15 17 1016.2 1016.1 0.2
09/03:30pm 25.1 22.2 16.0 57 5.5 ESE 26 28 14 15 1016.3 1016.2 0.2
09/03:00pm 25.3 21.8 15.6 55 5.9 ESE 28 30 15 16 1016.3 1016.2 0.2
09/02:30pm 25.1 22.7 16.5 59 5.3 ESE 24 32 13 17 1016.7 1016.6 0.2
09/02:00pm 24.8 22.5 17.5 64 4.5 ESE 26 32 14 17 1017.0 1016.9 0.2
09/01:30pm 25.5 22.2 18.4 65 4.5 ESE 33 37 18 20 1017.1 1017.0 0.2
09/01:00pm 25.7 23.3 17.4 60 5.2 ESE 26 32 14 17 1017.2 1017.1 0.2
09/12:30pm 25.0 23.4 17.5 63 4.7 SE 22 28 12 15 1017.3 1017.2 0.2
09/12:00pm 25.3 23.0 16.7 59 5.3 ESE 24 32 13 17 1017.8 1017.7 0.2
09/11:30am 26.0 24.1 17.6 60 5.3 ESE 24 30 13 16 1017.8 1017.7 0.2
09/11:00am 25.4 23.5 17.6 62 4.9 ESE 24 30 13 16 1018.2 1018.1 0.2
09/10:30am 25.6 23.2 18.3 64 4.6 ESE 28 32 15 17 1018.2 1018.1 0.2
09/10:00am 24.6 21.6 17.8 66 4.3 ESE 30 33 16 18 1018.0 1017.9 0.2
09/09:30am 24.0 21.0 18.6 72 3.4 ESE 32 37 17 20 1018.2 1018.1 0.2
09/09:00am 21.3 18.5 18.1 82 2.0 E 30 44 16 24 1018.5 1018.4 3.4
09/08:42am 21.4 17.8 18.6 84 1.8 E 35 43 19 23 1018.6 1018.5 3.2
09/08:30am 22.0 21.5 19.2 84 1.8 ESE 20 33 11 18 1018.6 1018.5 2.6
09/08:00am 21.1 17.1 17.5 80 2.2 ESE 35 56 19 30 1018.7 1018.6 2.4
09/07:51am 22.0 18.4 17.2 74 2.9 ESE 32 56 17 30 1018.6 1018.5 1.4
09/07:30am 23.3 20.3 17.7 71 3.5 SE 30 37 16 20 1018.4 1018.3 1.4
09/07:00am 23.2 19.8 17.7 71 3.4 SE 32 39 17 21 1018.1 1018.0 1.4
09/06:30am 23.0 19.5 17.5 71 3.4 SE 32 37 17 20 1018.0 1017.9 1.4
09/06:00am 22.5 19.3 18.1 76 2.7 SE 32 35 17 19 1017.8 1017.7 1.4
09/05:30am 22.7 19.2 17.4 72 3.3 ESE 32 35 17 19 1017.7 1017.6 1.4
09/05:00am 22.6 19.5 17.5 73 3.2 SE 30 35 16 19 1017.6 1017.5 1.4
09/04:30am 22.5 19.0 17.4 73 3.1 SE 32 37 17 20 1017.3 1017.2 1.4
09/04:00am 22.5 20.2 17.6 74 3.0 SE 26 33 14 18 1017.2 1017.1 1.4
09/03:30am 22.5 19.0 17.4 73 3.1 SE 32 35 17 19 1017.2 1017.1 1.4
09/03:00am 22.5 19.3 17.2 72 3.3 SE 30 35 16 19 1017.3 1017.2 1.4
09/02:30am 22.4 18.8 17.3 73 3.1 SE 32 37 17 20 1017.5 1017.4 1.4
09/02:00am 22.3 18.8 17.4 74 3.0 SE 32 37 17 20 1017.8 1017.7 1.4
09/01:30am 22.0 18.4 17.6 76 2.7 SE 33 37 18 20 1018.0 1017.9 1.4
09/01:00am 20.8 18.3 18.0 84 1.7 SE 28 41 15 22 1018.3 1018.2 1.4
09/12:30am 21.0 17.7 17.0 78 2.4 ESE 30 41 16 22 1018.7 1018.6 0.0
09/12:00am 22.7 19.4 16.9 70 3.5 SE 30 33 16 18 1018.9 1018.8 0.0
 
Date/Time
EST
Temp
°C
App
Temp
°C
Dew
Point
°C
Rel
Hum
%
Delta-T
°C
Wind Press
QNH
hPa
Press
MSL
hPa
Rain since
9am
mm
Dir  Spd
km/h
Gust
km/h
Spd
kts
Gust
kts
08/11:30pm 22.7 19.3 16.7 69 3.7 SE 30 33 16 18 1019.5 1019.4 0.0
08/11:00pm 22.5 19.4 16.5 69 3.6 SE 28 32 15 17 1019.9 1019.8 0.0
08/10:30pm 22.6 19.3 16.9 70 3.5 SE 30 33 16 18 1020.3 1020.2 0.0
08/10:00pm 22.7 19.3 16.7 69 3.7 ESE 30 33 16 18 1020.4 1020.3 0.0
08/09:30pm 22.6 19.0 16.2 67 3.9 SE 30 33 16 18 1020.5 1020.4 0.0
08/09:00pm 22.7 20.0 16.7 69 3.7 SE 26 30 14 16 1020.3 1020.2 0.0
08/08:30pm 22.8 19.6 16.4 67 3.9 ESE 28 33 15 18 1020.2 1020.1 0.0
08/08:00pm 23.0 19.6 16.8 68 3.8 SE 30 35 16 19 1020.2 1020.1 0.0
08/07:30pm 23.1 19.4 16.9 68 3.8 SE 32 37 17 20 1020.0 1019.9 0.0
08/07:00pm 23.2 19.3 16.5 66 4.1 SE 32 39 17 21 1019.8 1019.7 0.0
08/06:30pm 23.3 19.4 16.4 65 4.2 SE 32 37 17 20 1019.7 1019.6 0.0
08/06:00pm 23.4 19.4 16.2 64 4.4 SE 32 35 17 19 1019.4 1019.3 0.0
08/05:30pm 23.5 19.5 16.1 63 4.5 ESE 32 35 17 19 1019.1 1019.0 0.0
08/05:00pm 23.7 19.9 16.7 65 4.3 ESE 32 35 17 19 1018.8 1018.7 0.0
08/04:30pm 23.7 19.8 16.5 64 4.4 ESE 32 37 17 20 1018.6 1018.5 0.0
08/04:00pm 23.8 19.8 16.3 63 4.6 ESE 32 37 17 20 1018.5 1018.4 0.0
08/03:30pm 24.4 20.6 16.6 61 4.8 SE 32 37 17 20 1018.5 1018.4 0.0
08/03:00pm 24.1 20.4 16.1 61 4.9 SE 30 35 16 19 1018.6 1018.5 0.0
08/02:30pm 24.3 20.2 16.0 60 5.0 ESE 32 35 17 19 1018.7 1018.6 0.0
08/02:00pm 24.0 19.8 15.8 60 5.0 SE 32 37 17 20 1018.8 1018.7 0.0
08/01:30pm 24.5 20.5 16.2 60 5.1 ESE 32 35 17 19 1019.2 1019.1 0.0
08/01:00pm 23.9 19.5 15.1 58 5.3 ESE 32 37 17 20 1019.4 1019.3 0.0
08/12:30pm 23.8 19.4 15.6 60 4.9 ESE 33 39 18 21 1019.5 1019.4 0.0
08/12:00pm 23.8 18.9 15.3 59 5.1 ESE 35 39 19 21 1019.6 1019.5 0.0
08/11:30am 24.8 19.9 15.4 56 5.7 ESE 35 41 19 22 1019.7 1019.6 0.0
08/11:00am 24.3 20.0 15.8 59 5.1 ESE 33 37 18 20 1020.0 1019.9 0.0
08/10:30am 23.9 19.2 15.9 61 4.8 ESE 35 43 19 23 1020.2 1020.1 0.0
08/10:00am 23.7 19.8 16.5 64 4.4 SE 32 43 17 23 1020.3 1020.2 0.0
08/09:30am 23.7 19.4 15.5 60 4.9 SE 32 37 17 20 1020.4 1020.3 0.0
08/09:00am 23.6 19.7 16.4 64 4.4 SE 32 37 17 20 1020.6 1020.5 0.0
08/08:30am 23.4 21.1 16.7 66 4.1 SE 24 30 13 16 1020.9 1020.8 0.0
08/08:00am 21.9 18.3 16.2 70 3.4 SE 30 35 16 19 1021.0 1020.9 0.0
08/07:30am 21.3 15.1 16.0 72 3.2 SE 43 54 23 29 1020.4 1020.3 0.0
08/07:00am 21.6 16.8 16.6 73 3.0 SE 37 48 20 26 1020.4 1020.3 0.0
08/06:30am 22.8 17.8 15.1 62 4.6 ESE 35 39 19 21 1020.0 1019.9 0.0
08/06:00am 21.7 17.1 16.2 71 3.3 SE 35 43 19 23 1019.6 1019.5 0.0
08/05:37am 22.7 18.2 15.3 63 4.4 ESE 33 54 18 29 1019.4 1019.3 0.0
08/05:30am 22.6 17.8 14.7 61 4.7 ESE 33 41 18 22 1019.2 1019.1 0.0
08/05:00am 22.2 17.6 16.0 68 3.7 SE 35 39 19 21 1019.2 1019.1 0.0
08/04:30am 22.0 17.3 15.8 68 3.7 SE 35 39 19 21 1018.9 1018.8 0.0
08/04:00am 22.2 17.7 14.8 63 4.4 SE 32 37 17 20 1018.9 1018.8 0.0
08/03:30am 22.2 17.0 14.6 62 4.5 SE 35 43 19 23 1018.7 1018.6 0.0
08/03:00am 22.4 17.0 14.0 59 4.9 SE 35 43 19 23 1018.8 1018.7 0.0
08/02:30am 22.4 16.9 13.5 57 5.1 SE 35 41 19 22 1018.8 1018.7 0.0
08/02:00am 22.4 16.6 14.0 59 4.9 SE 37 44 20 24 1019.0 1018.9 0.0
08/01:30am 22.4 16.5 13.7 58 5.0 SE 37 44 20 24 1019.3 1019.2 0.0
08/01:00am 22.4 16.4 13.2 56 5.3 SE 37 48 20 26 1019.5 1019.4 0.0
08/12:30am 22.5 16.2 13.6 57 5.2 SE 39 48 21 26 1019.6 1019.5 0.0
08/12:00am 22.5 16.3 13.8 58 5.0 ESE 39 48 21 26 1020.0 1019.9 0.0
 
Date/Time
EST
Temp
°C
App
Temp
°C
Dew
Point
°C
Rel
Hum
%
Delta-T
°C
Wind Press
QNH
hPa
Press
MSL
hPa
Rain since
9am
mm
Dir  Spd
km/h
Gust
km/h
Spd
kts
Gust
kts
07/11:30pm 22.6 16.4 15.0 62 4.5 ESE 41 48 22 26 1020.4 1020.3 0.0
07/11:00pm 22.7 16.9 15.0 61 4.6 ESE 39 46 21 25 1020.6 1020.5 0.0
07/10:30pm 22.7 17.4 15.3 63 4.4 ESE 37 44 20 24 1020.8 1020.7 0.0
07/10:00pm 22.8 17.4 14.9 61 4.7 ESE 37 46 20 25 1020.9 1020.8 0.0
07/09:30pm 22.8 16.4 14.4 59 4.9 SE 41 48 22 26 1020.8 1020.7 0.0

Latest Capital City Observations: Canberra | Sydney | Melbourne | Brisbane | Adelaide | Perth | Hobart | Darwin

Other Formats:

Comma delimited format used in spreadsheet applications
http://www.bom.gov.au/fwo/IDQ60901/IDQ60901.95591.axf

JavaScript Object Notation format (JSON) in row-major order
http://www.bom.gov.au/fwo/IDQ60901/IDQ60901.95591.json